sensor_id;sensor_type;location;lat;lon;timestamp;P1;durP1;ratioP1;P2;durP2;ratioP2
69981;SDS011;57319;56.274;43.980;2022-09-17T00:01:48;17.90;;;13.48;;
69981;SDS011;57319;56.274;43.980;2022-09-17T00:04:13;16.70;;;13.63;;
69981;SDS011;57319;56.274;43.980;2022-09-17T00:06:39;19.02;;;13.75;;
69981;SDS011;57319;56.274;43.980;2022-09-17T00:09:05;17.08;;;13.77;;
69981;SDS011;57319;56.274;43.980;2022-09-17T00:11:33;16.50;;;13.95;;
69981;SDS011;57319;56.274;43.980;2022-09-17T00:14:01;15.68;;;13.35;;
69981;SDS011;57319;56.274;43.980;2022-09-17T00:16:33;18.05;;;13.55;;
69981;SDS011;57319;56.274;43.980;2022-09-17T00:19:00;14.98;;;13.07;;
69981;SDS011;57319;56.274;43.980;2022-09-17T00:21:27;14.95;;;12.10;;
69981;SDS011;57319;56.274;43.980;2022-09-17T00:23:54;16.52;;;12.68;;
69981;SDS011;57319;56.274;43.980;2022-09-17T00:26:25;13.38;;;11.77;;
69981;SDS011;57319;56.274;43.980;2022-09-17T00:28:51;18.75;;;13.27;;
69981;SDS011;57319;56.274;43.980;2022-09-17T00:31:18;13.75;;;11.40;;
69981;SDS011;57319;56.274;43.980;2022-09-17T00:33:44;15.07;;;12.00;;
69981;SDS011;57319;56.274;43.980;2022-09-17T00:36:09;13.65;;;11.73;;
69981;SDS011;57319;56.274;43.980;2022-09-17T00:38:35;16.77;;;12.25;;
69981;SDS011;57319;56.274;43.980;2022-09-17T00:41:02;15.60;;;12.60;;
69981;SDS011;57319;56.274;43.980;2022-09-17T00:43:35;16.10;;;13.05;;
69981;SDS011;57319;56.274;43.980;2022-09-17T00:46:08;17.15;;;13.10;;
69981;SDS011;57319;56.274;43.980;2022-09-17T00:48:37;17.63;;;13.57;;
69981;SDS011;57319;56.274;43.980;2022-09-17T00:51:03;20.10;;;13.77;;
69981;SDS011;57319;56.274;43.980;2022-09-17T00:53:33;21.20;;;14.65;;
69981;SDS011;57319;56.274;43.980;2022-09-17T00:56:14;19.63;;;14.88;;
69981;SDS011;57319;56.274;43.980;2022-09-17T00:58:47;19.88;;;14.48;;
69981;SDS011;57319;56.274;43.980;2022-09-17T01:01:14;20.00;;;15.02;;
69981;SDS011;57319;56.274;43.980;2022-09-17T01:03:40;19.70;;;14.90;;
69981;SDS011;57319;56.274;43.980;2022-09-17T01:22:06;14.32;;;11.18;;
69981;SDS011;57319;56.274;43.980;2022-09-17T01:24:45;12.98;;;10.73;;
69981;SDS011;57319;56.274;43.980;2022-09-17T01:32:48;14.85;;;11.13;;
69981;SDS011;57319;56.274;43.980;2022-09-17T01:44:07;13.65;;;10.48;;
69981;SDS011;57319;56.274;43.980;2022-09-17T01:49:56;11.18;;;9.80;;
69981;SDS011;57319;56.274;43.980;2022-09-17T01:52:30;14.57;;;10.15;;
69981;SDS011;57319;56.274;43.980;2022-09-17T01:55:00;12.88;;;10.30;;
69981;SDS011;57319;56.274;43.980;2022-09-17T01:57:43;13.13;;;9.75;;
69981;SDS011;57319;56.274;43.980;2022-09-17T02:00:12;15.68;;;10.20;;
69981;SDS011;57319;56.274;43.980;2022-09-17T02:05:40;10.07;;;9.07;;
69981;SDS011;57319;56.274;43.980;2022-09-17T02:08:13;12.60;;;9.32;;
69981;SDS011;57319;56.274;43.980;2022-09-17T02:10:44;10.05;;;8.88;;
69981;SDS011;57319;56.274;43.980;2022-09-17T02:13:16;11.68;;;9.05;;
69981;SDS011;57319;56.274;43.980;2022-09-17T02:15:47;10.25;;;9.13;;
69981;SDS011;57319;56.274;43.980;2022-09-17T02:20:56;10.05;;;8.98;;
69981;SDS011;57319;56.274;43.980;2022-09-17T02:23:29;9.02;;;8.20;;
69981;SDS011;57319;56.274;43.980;2022-09-17T02:26:03;12.10;;;8.93;;
69981;SDS011;57319;56.274;43.980;2022-09-17T02:28:47;9.75;;;8.75;;
69981;SDS011;57319;56.274;43.980;2022-09-17T02:31:19;9.90;;;8.30;;
69981;SDS011;57319;56.274;43.980;2022-09-17T02:33:47;11.55;;;8.90;;
69981;SDS011;57319;56.274;43.980;2022-09-17T02:36:14;9.65;;;8.68;;
69981;SDS011;57319;56.274;43.980;2022-09-17T02:38:40;9.85;;;7.97;;
69981;SDS011;57319;56.274;43.980;2022-09-17T02:41:15;17.70;;;8.70;;
69981;SDS011;57319;56.274;43.980;2022-09-17T02:46:40;12.27;;;7.78;;
69981;SDS011;57319;56.274;43.980;2022-09-17T02:55:17;14.60;;;8.60;;
69981;SDS011;57319;56.274;43.980;2022-09-17T03:00:50;13.82;;;9.50;;
69981;SDS011;57319;56.274;43.980;2022-09-17T03:03:22;15.70;;;10.80;;
69981;SDS011;57319;56.274;43.980;2022-09-17T03:05:55;16.38;;;10.55;;
69981;SDS011;57319;56.274;43.980;2022-09-17T03:08:26;14.50;;;9.88;;
69981;SDS011;57319;56.274;43.980;2022-09-17T03:10:54;12.02;;;10.25;;
69981;SDS011;57319;56.274;43.980;2022-09-17T03:13:20;14.73;;;10.50;;
69981;SDS011;57319;56.274;43.980;2022-09-17T03:15:46;20.13;;;10.63;;
69981;SDS011;57319;56.274;43.980;2022-09-17T03:18:11;16.40;;;11.18;;
69981;SDS011;57319;56.274;43.980;2022-09-17T03:20:37;12.38;;;9.52;;
69981;SDS011;57319;56.274;43.980;2022-09-17T03:23:02;18.13;;;10.82;;
69981;SDS011;57319;56.274;43.980;2022-09-17T03:25:28;15.90;;;10.75;;
69981;SDS011;57319;56.274;43.980;2022-09-17T03:27:54;18.80;;;10.20;;
69981;SDS011;57319;56.274;43.980;2022-09-17T03:30:19;16.98;;;10.52;;
69981;SDS011;57319;56.274;43.980;2022-09-17T03:32:45;21.10;;;12.27;;
69981;SDS011;57319;56.274;43.980;2022-09-17T03:35:11;18.02;;;11.02;;
69981;SDS011;57319;56.274;43.980;2022-09-17T03:37:36;19.08;;;11.15;;
69981;SDS011;57319;56.274;43.980;2022-09-17T03:40:02;18.23;;;12.55;;
69981;SDS011;57319;56.274;43.980;2022-09-17T03:42:28;17.08;;;11.77;;
69981;SDS011;57319;56.274;43.980;2022-09-17T03:44:54;18.40;;;11.57;;
69981;SDS011;57319;56.274;43.980;2022-09-17T03:47:21;17.80;;;11.73;;
69981;SDS011;57319;56.274;43.980;2022-09-17T03:49:46;17.60;;;10.98;;
69981;SDS011;57319;56.274;43.980;2022-09-17T03:52:12;17.13;;;12.23;;
69981;SDS011;57319;56.274;43.980;2022-09-17T03:54:41;16.13;;;10.93;;
69981;SDS011;57319;56.274;43.980;2022-09-17T03:57:06;17.45;;;11.90;;
69981;SDS011;57319;56.274;43.980;2022-09-17T03:59:32;19.70;;;11.68;;
69981;SDS011;57319;56.274;43.980;2022-09-17T04:01:57;14.23;;;11.45;;
69981;SDS011;57319;56.274;43.980;2022-09-17T04:04:23;16.52;;;11.02;;
69981;SDS011;57319;56.274;43.980;2022-09-17T04:06:49;16.25;;;10.90;;
69981;SDS011;57319;56.274;43.980;2022-09-17T04:09:14;10.75;;;9.65;;
69981;SDS011;57319;56.274;43.980;2022-09-17T04:11:40;10.23;;;9.20;;
69981;SDS011;57319;56.274;43.980;2022-09-17T04:14:06;11.13;;;9.18;;
69981;SDS011;57319;56.274;43.980;2022-09-17T04:16:31;11.80;;;8.20;;
69981;SDS011;57319;56.274;43.980;2022-09-17T04:18:57;10.65;;;9.52;;
69981;SDS011;57319;56.274;43.980;2022-09-17T04:21:22;10.15;;;8.15;;
69981;SDS011;57319;56.274;43.980;2022-09-17T04:23:48;9.70;;;8.70;;
69981;SDS011;57319;56.274;43.980;2022-09-17T04:26:13;9.27;;;8.48;;
69981;SDS011;57319;56.274;43.980;2022-09-17T04:28:39;9.18;;;8.23;;
69981;SDS011;57319;56.274;43.980;2022-09-17T04:31:05;9.95;;;8.85;;
69981;SDS011;57319;56.274;43.980;2022-09-17T04:33:31;14.60;;;8.55;;
69981;SDS011;57319;56.274;43.980;2022-09-17T04:35:56;12.05;;;8.48;;
69981;SDS011;57319;56.274;43.980;2022-09-17T04:38:22;10.85;;;8.70;;
69981;SDS011;57319;56.274;43.980;2022-09-17T04:40:48;9.65;;;8.70;;
69981;SDS011;57319;56.274;43.980;2022-09-17T04:43:15;11.80;;;8.63;;
69981;SDS011;57319;56.274;43.980;2022-09-17T04:45:43;10.70;;;8.82;;
69981;SDS011;57319;56.274;43.980;2022-09-17T04:48:11;11.10;;;8.27;;
69981;SDS011;57319;56.274;43.980;2022-09-17T04:50:36;10.82;;;8.80;;
69981;SDS011;57319;56.274;43.980;2022-09-17T04:53:02;10.05;;;9.05;;
69981;SDS011;57319;56.274;43.980;2022-09-17T04:55:28;13.77;;;10.07;;
69981;SDS011;57319;56.274;43.980;2022-09-17T04:57:55;8.98;;;8.07;;
69981;SDS011;57319;56.274;43.980;2022-09-17T05:00:21;10.95;;;9.63;;
69981;SDS011;57319;56.274;43.980;2022-09-17T05:02:49;10.43;;;9.07;;
69981;SDS011;57319;56.274;43.980;2022-09-17T05:05:16;12.88;;;9.45;;
69981;SDS011;57319;56.274;43.980;2022-09-17T05:07:43;10.00;;;9.10;;
69981;SDS011;57319;56.274;43.980;2022-09-17T05:10:09;12.73;;;10.18;;
69981;SDS011;57319;56.274;43.980;2022-09-17T05:12:35;10.20;;;9.20;;
69981;SDS011;57319;56.274;43.980;2022-09-17T05:15:01;12.55;;;9.57;;
69981;SDS011;57319;56.274;43.980;2022-09-17T05:17:28;14.25;;;10.15;;
69981;SDS011;57319;56.274;43.980;2022-09-17T05:19:54;12.13;;;10.95;;
69981;SDS011;57319;56.274;43.980;2022-09-17T05:22:19;16.00;;;10.77;;
69981;SDS011;57319;56.274;43.980;2022-09-17T05:24:45;18.27;;;12.10;;
69981;SDS011;57319;56.274;43.980;2022-09-17T05:27:11;11.98;;;10.52;;
69981;SDS011;57319;56.274;43.980;2022-09-17T05:29:37;13.30;;;11.32;;
69981;SDS011;57319;56.274;43.980;2022-09-17T05:32:04;11.60;;;9.95;;
69981;SDS011;57319;56.274;43.980;2022-09-17T05:34:30;13.45;;;10.20;;
69981;SDS011;57319;56.274;43.980;2022-09-17T05:36:55;13.82;;;9.93;;
69981;SDS011;57319;56.274;43.980;2022-09-17T05:39:21;16.67;;;11.02;;
69981;SDS011;57319;56.274;43.980;2022-09-17T05:41:52;14.48;;;10.32;;
69981;SDS011;57319;56.274;43.980;2022-09-17T05:44:18;15.52;;;10.40;;
69981;SDS011;57319;56.274;43.980;2022-09-17T05:46:45;16.30;;;10.32;;
69981;SDS011;57319;56.274;43.980;2022-09-17T05:49:11;13.73;;;10.00;;
69981;SDS011;57319;56.274;43.980;2022-09-17T05:51:39;13.43;;;9.43;;
69981;SDS011;57319;56.274;43.980;2022-09-17T05:54:05;10.32;;;9.30;;
69981;SDS011;57319;56.274;43.980;2022-09-17T05:56:31;13.88;;;9.30;;
69981;SDS011;57319;56.274;43.980;2022-09-17T05:58:57;18.10;;;9.65;;
69981;SDS011;57319;56.274;43.980;2022-09-17T06:01:23;23.02;;;10.45;;
69981;SDS011;57319;56.274;43.980;2022-09-17T06:03:48;39.05;;;10.38;;
69981;SDS011;57319;56.274;43.980;2022-09-17T06:06:14;19.95;;;9.68;;
69981;SDS011;57319;56.274;43.980;2022-09-17T06:08:40;20.10;;;8.70;;
69981;SDS011;57319;56.274;43.980;2022-09-17T06:11:06;25.65;;;8.48;;
69981;SDS011;57319;56.274;43.980;2022-09-17T06:13:32;16.33;;;8.55;;
69981;SDS011;57319;56.274;43.980;2022-09-17T06:15:59;26.40;;;9.05;;
69981;SDS011;57319;56.274;43.980;2022-09-17T06:18:26;13.15;;;6.40;;
69981;SDS011;57319;56.274;43.980;2022-09-17T06:20:56;5.72;;;4.25;;
69981;SDS011;57319;56.274;43.980;2022-09-17T06:23:23;4.88;;;4.50;;
69981;SDS011;57319;56.274;43.980;2022-09-17T06:25:59;8.18;;;4.75;;
69981;SDS011;57319;56.274;43.980;2022-09-17T06:28:25;6.28;;;5.57;;
69981;SDS011;57319;56.274;43.980;2022-09-17T06:30:52;7.72;;;5.40;;
69981;SDS011;57319;56.274;43.980;2022-09-17T06:33:21;11.75;;;6.13;;
69981;SDS011;57319;56.274;43.980;2022-09-17T06:35:48;14.45;;;5.90;;
69981;SDS011;57319;56.274;43.980;2022-09-17T06:38:20;8.48;;;6.00;;
69981;SDS011;57319;56.274;43.980;2022-09-17T06:40:49;6.63;;;5.18;;
69981;SDS011;57319;56.274;43.980;2022-09-17T06:43:16;6.60;;;5.72;;
69981;SDS011;57319;56.274;43.980;2022-09-17T06:45:41;8.45;;;5.13;;
69981;SDS011;57319;56.274;43.980;2022-09-17T06:48:07;4.25;;;3.92;;
69981;SDS011;57319;56.274;43.980;2022-09-17T06:50:33;9.85;;;3.80;;
69981;SDS011;57319;56.274;43.980;2022-09-17T06:52:59;3.15;;;2.95;;
69981;SDS011;57319;56.274;43.980;2022-09-17T06:55:25;3.30;;;3.00;;
69981;SDS011;57319;56.274;43.980;2022-09-17T06:57:51;3.45;;;3.20;;
69981;SDS011;57319;56.274;43.980;2022-09-17T07:00:16;6.85;;;2.92;;
69981;SDS011;57319;56.274;43.980;2022-09-17T07:02:42;4.32;;;3.55;;
69981;SDS011;57319;56.274;43.980;2022-09-17T07:05:08;3.58;;;3.28;;
69981;SDS011;57319;56.274;43.980;2022-09-17T07:07:33;5.18;;;3.40;;
69981;SDS011;57319;56.274;43.980;2022-09-17T07:10:00;3.10;;;2.88;;
69981;SDS011;57319;56.274;43.980;2022-09-17T07:12:26;6.57;;;2.83;;
69981;SDS011;57319;56.274;43.980;2022-09-17T07:14:52;3.20;;;2.97;;
69981;SDS011;57319;56.274;43.980;2022-09-17T07:17:17;3.95;;;3.65;;
69981;SDS011;57319;56.274;43.980;2022-09-17T07:19:43;6.03;;;3.60;;
69981;SDS011;57319;56.274;43.980;2022-09-17T07:22:10;12.23;;;3.72;;
69981;SDS011;57319;56.274;43.980;2022-09-17T07:24:38;11.38;;;3.05;;
69981;SDS011;57319;56.274;43.980;2022-09-17T07:27:03;15.98;;;3.83;;
69981;SDS011;57319;56.274;43.980;2022-09-17T07:29:29;6.78;;;3.35;;
69981;SDS011;57319;56.274;43.980;2022-09-17T07:31:56;13.00;;;3.90;;
69981;SDS011;57319;56.274;43.980;2022-09-17T07:34:23;7.88;;;4.03;;
69981;SDS011;57319;56.274;43.980;2022-09-17T07:36:52;17.30;;;4.05;;
69981;SDS011;57319;56.274;43.980;2022-09-17T07:39:17;17.48;;;3.95;;
69981;SDS011;57319;56.274;43.980;2022-09-17T07:41:43;9.65;;;4.05;;
69981;SDS011;57319;56.274;43.980;2022-09-17T07:44:09;11.15;;;3.65;;
69981;SDS011;57319;56.274;43.980;2022-09-17T07:46:34;7.22;;;3.35;;
69981;SDS011;57319;56.274;43.980;2022-09-17T07:49:00;15.45;;;2.92;;
69981;SDS011;57319;56.274;43.980;2022-09-17T07:51:26;6.40;;;3.00;;
69981;SDS011;57319;56.274;43.980;2022-09-17T07:53:58;14.85;;;3.70;;
69981;SDS011;57319;56.274;43.980;2022-09-17T07:56:24;12.07;;;4.18;;
69981;SDS011;57319;56.274;43.980;2022-09-17T07:58:51;6.85;;;3.03;;
69981;SDS011;57319;56.274;43.980;2022-09-17T08:01:16;4.38;;;3.53;;
69981;SDS011;57319;56.274;43.980;2022-09-17T08:03:46;5.35;;;3.22;;
69981;SDS011;57319;56.274;43.980;2022-09-17T08:06:17;7.55;;;3.90;;
69981;SDS011;57319;56.274;43.980;2022-09-17T08:08:47;3.85;;;3.53;;
69981;SDS011;57319;56.274;43.980;2022-09-17T08:11:14;4.80;;;3.30;;
69981;SDS011;57319;56.274;43.980;2022-09-17T08:13:51;8.55;;;3.60;;
69981;SDS011;57319;56.274;43.980;2022-09-17T08:16:18;9.73;;;4.20;;
69981;SDS011;57319;56.274;43.980;2022-09-17T08:18:46;7.07;;;3.80;;
69981;SDS011;57319;56.274;43.980;2022-09-17T08:21:14;4.75;;;3.63;;
69981;SDS011;57319;56.274;43.980;2022-09-17T08:23:41;4.28;;;3.80;;
69981;SDS011;57319;56.274;43.980;2022-09-17T08:26:15;3.00;;;2.75;;
69981;SDS011;57319;56.274;43.980;2022-09-17T08:28:45;2.90;;;2.60;;
69981;SDS011;57319;56.274;43.980;2022-09-17T08:31:13;15.25;;;3.58;;
69981;SDS011;57319;56.274;43.980;2022-09-17T08:33:40;5.45;;;3.28;;
69981;SDS011;57319;56.274;43.980;2022-09-17T08:36:07;7.30;;;3.95;;
69981;SDS011;57319;56.274;43.980;2022-09-17T08:38:35;9.63;;;3.90;;
69981;SDS011;57319;56.274;43.980;2022-09-17T08:41:41;8.60;;;3.25;;
69981;SDS011;57319;56.274;43.980;2022-09-17T08:44:24;4.05;;;2.80;;
69981;SDS011;57319;56.274;43.980;2022-09-17T08:46:58;2.90;;;2.70;;
69981;SDS011;57319;56.274;43.980;2022-09-17T08:49:56;3.95;;;2.75;;
69981;SDS011;57319;56.274;43.980;2022-09-17T08:55:18;6.50;;;3.17;;
69981;SDS011;57319;56.274;43.980;2022-09-17T09:06:17;6.82;;;3.55;;
69981;SDS011;57319;56.274;43.980;2022-09-17T09:08:59;13.48;;;3.83;;
69981;SDS011;57319;56.274;43.980;2022-09-17T09:11:29;15.40;;;3.58;;
69981;SDS011;57319;56.274;43.980;2022-09-17T09:14:06;5.65;;;3.22;;
69981;SDS011;57319;56.274;43.980;2022-09-17T09:16:41;13.63;;;3.40;;
69981;SDS011;57319;56.274;43.980;2022-09-17T09:19:25;5.70;;;3.40;;
69981;SDS011;57319;56.274;43.980;2022-09-17T09:24:40;7.68;;;2.95;;
69981;SDS011;57319;56.274;43.980;2022-09-17T09:35:35;3.50;;;3.20;;
69981;SDS011;57319;56.274;43.980;2022-09-17T09:40:40;9.82;;;3.00;;
69981;SDS011;57319;56.274;43.980;2022-09-17T09:57:13;6.07;;;2.53;;
69981;SDS011;57319;56.274;43.980;2022-09-17T09:59:42;3.42;;;2.63;;
69981;SDS011;57319;56.274;43.980;2022-09-17T10:02:07;7.20;;;2.58;;
69981;SDS011;57319;56.274;43.980;2022-09-17T10:04:33;8.05;;;2.83;;
69981;SDS011;57319;56.274;43.980;2022-09-17T10:07:00;3.65;;;2.10;;
69981;SDS011;57319;56.274;43.980;2022-09-17T10:09:30;2.75;;;2.30;;
69981;SDS011;57319;56.274;43.980;2022-09-17T10:14:34;5.15;;;1.98;;
69981;SDS011;57319;56.274;43.980;2022-09-17T10:19:45;5.03;;;2.28;;
69981;SDS011;57319;56.274;43.980;2022-09-17T10:25:02;2.85;;;2.60;;
69981;SDS011;57319;56.274;43.980;2022-09-17T10:27:30;2.50;;;2.03;;
69981;SDS011;57319;56.274;43.980;2022-09-17T10:30:00;10.35;;;2.67;;
69981;SDS011;57319;56.274;43.980;2022-09-17T10:32:27;2.67;;;2.47;;
69981;SDS011;57319;56.274;43.980;2022-09-17T10:34:57;4.85;;;2.35;;
69981;SDS011;57319;56.274;43.980;2022-09-17T10:37:32;3.83;;;2.15;;
69981;SDS011;57319;56.274;43.980;2022-09-17T10:39:58;9.40;;;2.38;;
69981;SDS011;57319;56.274;43.980;2022-09-17T10:42:23;4.75;;;1.80;;
69981;SDS011;57319;56.274;43.980;2022-09-17T10:44:53;4.82;;;2.33;;
69981;SDS011;57319;56.274;43.980;2022-09-17T10:47:53;6.22;;;2.88;;
69981;SDS011;57319;56.274;43.980;2022-09-17T10:50:19;2.15;;;1.98;;
69981;SDS011;57319;56.274;43.980;2022-09-17T10:52:50;2.47;;;1.70;;
69981;SDS011;57319;56.274;43.980;2022-09-17T10:55:40;7.13;;;1.83;;
69981;SDS011;57319;56.274;43.980;2022-09-17T11:25:23;9.40;;;2.10;;
69981;SDS011;57319;56.274;43.980;2022-09-17T11:36:24;5.53;;;3.10;;
69981;SDS011;57319;56.274;43.980;2022-09-17T11:38:56;15.75;;;3.42;;
69981;SDS011;57319;56.274;43.980;2022-09-17T11:41:30;8.17;;;2.40;;
69981;SDS011;57319;56.274;43.980;2022-09-17T11:46:51;7.53;;;2.30;;
69981;SDS011;57319;56.274;43.980;2022-09-17T11:49:27;5.53;;;2.10;;
69981;SDS011;57319;56.274;43.980;2022-09-17T11:57:43;8.70;;;2.33;;
69981;SDS011;57319;56.274;43.980;2022-09-17T12:05:55;2.05;;;1.85;;
69981;SDS011;57319;56.274;43.980;2022-09-17T12:08:23;8.60;;;2.20;;
69981;SDS011;57319;56.274;43.980;2022-09-17T12:18:52;4.93;;;2.08;;
69981;SDS011;57319;56.274;43.980;2022-09-17T12:21:47;4.03;;;1.83;;
69981;SDS011;57319;56.274;43.980;2022-09-17T12:32:29;2.85;;;1.88;;
69981;SDS011;57319;56.274;43.980;2022-09-17T12:44:25;2.72;;;2.53;;
69981;SDS011;57319;56.274;43.980;2022-09-17T12:50:01;3.65;;;3.10;;
69981;SDS011;57319;56.274;43.980;2022-09-17T13:01:06;8.43;;;4.05;;
69981;SDS011;57319;56.274;43.980;2022-09-17T13:17:50;7.43;;;4.40;;
69981;SDS011;57319;56.274;43.980;2022-09-17T13:20:33;3.97;;;3.60;;
69981;SDS011;57319;56.274;43.980;2022-09-17T13:23:12;6.03;;;4.40;;
69981;SDS011;57319;56.274;43.980;2022-09-17T13:25:49;8.68;;;3.40;;
69981;SDS011;57319;56.274;43.980;2022-09-17T13:28:19;6.18;;;3.80;;
69981;SDS011;57319;56.274;43.980;2022-09-17T13:31:00;6.30;;;3.28;;
69981;SDS011;57319;56.274;43.980;2022-09-17T13:33:47;7.88;;;3.90;;
69981;SDS011;57319;56.274;43.980;2022-09-17T13:44:36;4.97;;;3.40;;
69981;SDS011;57319;56.274;43.980;2022-09-17T13:47:18;7.93;;;3.50;;
69981;SDS011;57319;56.274;43.980;2022-09-17T13:50:01;4.95;;;3.08;;
69981;SDS011;57319;56.274;43.980;2022-09-17T13:52:35;8.63;;;3.40;;
69981;SDS011;57319;56.274;43.980;2022-09-17T13:55:02;5.10;;;3.42;;
69981;SDS011;57319;56.274;43.980;2022-09-17T13:57:43;4.00;;;3.60;;
69981;SDS011;57319;56.274;43.980;2022-09-17T14:13:48;7.45;;;4.20;;
69981;SDS011;57319;56.274;43.980;2022-09-17T14:21:43;8.35;;;5.20;;
69981;SDS011;57319;56.274;43.980;2022-09-17T14:29:42;15.77;;;5.28;;
69981;SDS011;57319;56.274;43.980;2022-09-17T14:35:13;7.97;;;5.80;;
69981;SDS011;57319;56.274;43.980;2022-09-17T14:37:54;9.57;;;5.60;;
69981;SDS011;57319;56.274;43.980;2022-09-17T14:40:23;8.60;;;5.82;;
69981;SDS011;57319;56.274;43.980;2022-09-17T14:42:54;9.20;;;5.63;;
69981;SDS011;57319;56.274;43.980;2022-09-17T14:45:31;14.93;;;5.13;;
69981;SDS011;57319;56.274;43.980;2022-09-17T14:51:38;14.27;;;5.07;;
69981;SDS011;57319;56.274;43.980;2022-09-17T14:53:41;9.57;;;5.85;;
69981;SDS011;57319;56.274;43.980;2022-09-17T14:56:15;12.18;;;5.45;;
69981;SDS011;57319;56.274;43.980;2022-09-17T14:58:52;19.85;;;5.90;;
69981;SDS011;57319;56.274;43.980;2022-09-17T15:01:23;9.57;;;6.63;;
69981;SDS011;57319;56.274;43.980;2022-09-17T15:04:09;13.50;;;7.68;;
69981;SDS011;57319;56.274;43.980;2022-09-17T15:06:37;10.40;;;5.10;;
69981;SDS011;57319;56.274;43.980;2022-09-17T15:09:03;19.80;;;5.47;;
69981;SDS011;57319;56.274;43.980;2022-09-17T15:11:30;7.22;;;4.35;;
69981;SDS011;57319;56.274;43.980;2022-09-17T15:14:02;7.82;;;4.72;;
69981;SDS011;57319;56.274;43.980;2022-09-17T15:16:32;9.85;;;4.72;;
69981;SDS011;57319;56.274;43.980;2022-09-17T15:19:00;11.82;;;4.47;;
69981;SDS011;57319;56.274;43.980;2022-09-17T15:21:33;11.73;;;4.07;;
69981;SDS011;57319;56.274;43.980;2022-09-17T15:29:12;12.75;;;4.28;;
69981;SDS011;57319;56.274;43.980;2022-09-17T15:31:38;11.88;;;5.03;;
69981;SDS011;57319;56.274;43.980;2022-09-17T15:34:05;11.40;;;5.07;;
69981;SDS011;57319;56.274;43.980;2022-09-17T15:36:30;9.52;;;4.80;;
69981;SDS011;57319;56.274;43.980;2022-09-17T15:38:57;6.00;;;4.75;;
69981;SDS011;57319;56.274;43.980;2022-09-17T15:41:27;9.13;;;4.50;;
69981;SDS011;57319;56.274;43.980;2022-09-17T15:44:18;3.97;;;3.67;;
69981;SDS011;57319;56.274;43.980;2022-09-17T15:46:48;14.13;;;4.15;;
69981;SDS011;57319;56.274;43.980;2022-09-17T15:54:52;9.00;;;3.65;;
69981;SDS011;57319;56.274;43.980;2022-09-17T15:57:18;8.93;;;3.38;;
69981;SDS011;57319;56.274;43.980;2022-09-17T15:59:46;3.90;;;3.03;;
69981;SDS011;57319;56.274;43.980;2022-09-17T16:02:33;3.17;;;2.20;;
69981;SDS011;57319;56.274;43.980;2022-09-17T16:07:49;7.63;;;2.42;;
69981;SDS011;57319;56.274;43.980;2022-09-17T16:10:16;6.20;;;2.45;;
69981;SDS011;57319;56.274;43.980;2022-09-17T16:12:42;5.28;;;2.92;;
69981;SDS011;57319;56.274;43.980;2022-09-17T16:15:08;8.18;;;3.13;;
69981;SDS011;57319;56.274;43.980;2022-09-17T16:20:16;2.92;;;2.72;;
69981;SDS011;57319;56.274;43.980;2022-09-17T16:22:46;5.43;;;2.85;;
69981;SDS011;57319;56.274;43.980;2022-09-17T16:25:12;6.47;;;2.92;;
69981;SDS011;57319;56.274;43.980;2022-09-17T16:27:49;3.72;;;2.60;;
69981;SDS011;57319;56.274;43.980;2022-09-17T16:30:19;14.10;;;3.05;;
69981;SDS011;57319;56.274;43.980;2022-09-17T16:32:46;7.45;;;3.00;;
69981;SDS011;57319;56.274;43.980;2022-09-17T16:35:19;9.55;;;2.60;;
69981;SDS011;57319;56.274;43.980;2022-09-17T16:37:54;9.65;;;2.40;;
69981;SDS011;57319;56.274;43.980;2022-09-17T16:40:21;5.53;;;2.60;;
69981;SDS011;57319;56.274;43.980;2022-09-17T16:42:48;8.80;;;2.72;;
69981;SDS011;57319;56.274;43.980;2022-09-17T16:45:14;2.42;;;2.22;;
69981;SDS011;57319;56.274;43.980;2022-09-17T16:47:41;5.80;;;2.75;;
69981;SDS011;57319;56.274;43.980;2022-09-17T16:50:11;8.38;;;2.75;;
69981;SDS011;57319;56.274;43.980;2022-09-17T16:52:39;7.18;;;2.83;;
69981;SDS011;57319;56.274;43.980;2022-09-17T16:55:05;2.55;;;2.38;;
69981;SDS011;57319;56.274;43.980;2022-09-17T16:57:31;6.93;;;3.42;;
69981;SDS011;57319;56.274;43.980;2022-09-17T16:59:57;7.85;;;3.30;;
69981;SDS011;57319;56.274;43.980;2022-09-17T17:02:23;6.57;;;2.88;;
69981;SDS011;57319;56.274;43.980;2022-09-17T17:04:49;6.85;;;3.03;;
69981;SDS011;57319;56.274;43.980;2022-09-17T17:07:14;4.50;;;2.78;;
69981;SDS011;57319;56.274;43.980;2022-09-17T17:09:40;5.72;;;2.63;;
69981;SDS011;57319;56.274;43.980;2022-09-17T17:12:06;13.60;;;3.05;;
69981;SDS011;57319;56.274;43.980;2022-09-17T17:14:32;6.95;;;3.17;;
69981;SDS011;57319;56.274;43.980;2022-09-17T17:16:57;8.32;;;2.58;;
69981;SDS011;57319;56.274;43.980;2022-09-17T17:19:24;5.60;;;2.78;;
69981;SDS011;57319;56.274;43.980;2022-09-17T17:21:51;4.32;;;2.20;;
69981;SDS011;57319;56.274;43.980;2022-09-17T17:24:17;5.97;;;2.63;;
69981;SDS011;57319;56.274;43.980;2022-09-17T17:26:43;12.27;;;2.95;;
69981;SDS011;57319;56.274;43.980;2022-09-17T17:29:10;7.20;;;3.00;;
69981;SDS011;57319;56.274;43.980;2022-09-17T17:31:36;3.17;;;2.88;;
69981;SDS011;57319;56.274;43.980;2022-09-17T17:34:02;8.65;;;2.30;;
69981;SDS011;57319;56.274;43.980;2022-09-17T17:36:27;3.08;;;2.65;;
69981;SDS011;57319;56.274;43.980;2022-09-17T17:38:56;15.02;;;3.20;;
69981;SDS011;57319;56.274;43.980;2022-09-17T17:41:22;7.35;;;2.83;;
69981;SDS011;57319;56.274;43.980;2022-09-17T17:43:54;6.57;;;3.00;;
69981;SDS011;57319;56.274;43.980;2022-09-17T17:46:21;3.70;;;2.97;;
69981;SDS011;57319;56.274;43.980;2022-09-17T17:48:48;5.38;;;2.17;;
69981;SDS011;57319;56.274;43.980;2022-09-17T17:51:14;6.35;;;2.65;;
69981;SDS011;57319;56.274;43.980;2022-09-17T17:53:42;4.55;;;2.22;;
69981;SDS011;57319;56.274;43.980;2022-09-17T17:56:08;9.80;;;2.20;;
69981;SDS011;57319;56.274;43.980;2022-09-17T17:58:36;9.10;;;2.38;;
69981;SDS011;57319;56.274;43.980;2022-09-17T18:01:09;4.40;;;2.80;;
69981;SDS011;57319;56.274;43.980;2022-09-17T18:03:43;7.35;;;2.25;;
69981;SDS011;57319;56.274;43.980;2022-09-17T18:06:09;3.22;;;2.55;;
69981;SDS011;57319;56.274;43.980;2022-09-17T18:08:38;10.07;;;2.63;;
69981;SDS011;57319;56.274;43.980;2022-09-17T18:11:05;5.53;;;2.40;;
69981;SDS011;57319;56.274;43.980;2022-09-17T18:13:33;10.00;;;2.53;;
69981;SDS011;57319;56.274;43.980;2022-09-17T18:16:00;7.13;;;2.40;;
69981;SDS011;57319;56.274;43.980;2022-09-17T18:18:33;12.80;;;3.17;;
69981;SDS011;57319;56.274;43.980;2022-09-17T18:23:28;8.10;;;2.67;;
69981;SDS011;57319;56.274;43.980;2022-09-17T18:25:54;13.02;;;3.72;;
69981;SDS011;57319;56.274;43.980;2022-09-17T18:28:21;10.32;;;2.53;;
69981;SDS011;57319;56.274;43.980;2022-09-17T18:30:47;2.47;;;2.33;;
69981;SDS011;57319;56.274;43.980;2022-09-17T18:33:21;4.30;;;2.50;;
69981;SDS011;57319;56.274;43.980;2022-09-17T18:35:48;6.05;;;2.55;;
69981;SDS011;57319;56.274;43.980;2022-09-17T18:38:24;6.95;;;2.53;;
69981;SDS011;57319;56.274;43.980;2022-09-17T18:40:50;4.25;;;2.22;;
69981;SDS011;57319;56.274;43.980;2022-09-17T18:43:15;5.40;;;2.60;;
69981;SDS011;57319;56.274;43.980;2022-09-17T18:45:41;9.68;;;2.72;;
69981;SDS011;57319;56.274;43.980;2022-09-17T18:48:06;4.53;;;2.28;;
69981;SDS011;57319;56.274;43.980;2022-09-17T18:50:32;11.10;;;2.83;;
69981;SDS011;57319;56.274;43.980;2022-09-17T18:52:58;3.70;;;2.30;;
69981;SDS011;57319;56.274;43.980;2022-09-17T18:55:24;6.53;;;2.97;;